sensor_id;sensor_type;location;lat;lon;timestamp;temperature;humidity
11812;DHT22;5963;50.184;9.162;2022-08-25T00:01:52;21.30;99.90
11812;DHT22;5963;50.184;9.162;2022-08-25T00:04:21;21.30;99.90
11812;DHT22;5963;50.184;9.162;2022-08-25T00:06:50;21.30;99.90
11812;DHT22;5963;50.184;9.162;2022-08-25T00:09:27;21.30;99.90
11812;DHT22;5963;50.184;9.162;2022-08-25T00:11:56;21.30;99.90
11812;DHT22;5963;50.184;9.162;2022-08-25T00:14:27;21.20;99.90
11812;DHT22;5963;50.184;9.162;2022-08-25T00:16:55;21.20;99.90
11812;DHT22;5963;50.184;9.162;2022-08-25T00:19:26;21.10;99.90
11812;DHT22;5963;50.184;9.162;2022-08-25T00:21:55;21.10;99.90
11812;DHT22;5963;50.184;9.162;2022-08-25T00:24:24;21.00;99.90
11812;DHT22;5963;50.184;9.162;2022-08-25T00:26:53;21.10;99.90
11812;DHT22;5963;50.184;9.162;2022-08-25T00:29:25;21.00;99.90
11812;DHT22;5963;50.184;9.162;2022-08-25T00:31:54;21.00;99.90
11812;DHT22;5963;50.184;9.162;2022-08-25T00:34:25;21.00;99.90
11812;DHT22;5963;50.184;9.162;2022-08-25T00:36:54;21.00;99.90
11812;DHT22;5963;50.184;9.162;2022-08-25T00:39:23;21.00;99.90
11812;DHT22;5963;50.184;9.162;2022-08-25T00:41:54;21.00;99.90
11812;DHT22;5963;50.184;9.162;2022-08-25T00:44:27;21.00;99.90
11812;DHT22;5963;50.184;9.162;2022-08-25T00:46:57;21.00;99.90
11812;DHT22;5963;50.184;9.162;2022-08-25T00:49:29;21.00;99.90
11812;DHT22;5963;50.184;9.162;2022-08-25T00:52:02;20.90;99.90
11812;DHT22;5963;50.184;9.162;2022-08-25T00:54:34;20.80;99.90
11812;DHT22;5963;50.184;9.162;2022-08-25T00:57:04;20.80;99.90
11812;DHT22;5963;50.184;9.162;2022-08-25T00:59:35;20.80;99.90
11812;DHT22;5963;50.184;9.162;2022-08-25T01:02:04;20.80;99.90
11812;DHT22;5963;50.184;9.162;2022-08-25T01:04:39;20.80;99.90
11812;DHT22;5963;50.184;9.162;2022-08-25T01:07:16;20.90;99.90
11812;DHT22;5963;50.184;9.162;2022-08-25T01:09:47;20.90;99.90
11812;DHT22;5963;50.184;9.162;2022-08-25T01:12:17;20.80;99.90
11812;DHT22;5963;50.184;9.162;2022-08-25T01:14:48;20.80;99.90
11812;DHT22;5963;50.184;9.162;2022-08-25T01:17:16;20.80;99.90
11812;DHT22;5963;50.184;9.162;2022-08-25T01:19:45;20.80;99.90
11812;DHT22;5963;50.184;9.162;2022-08-25T01:22:15;20.80;99.90
11812;DHT22;5963;50.184;9.162;2022-08-25T01:24:51;20.80;99.90
11812;DHT22;5963;50.184;9.162;2022-08-25T01:27:23;20.70;99.90
11812;DHT22;5963;50.184;9.162;2022-08-25T01:29:51;20.70;99.90
11812;DHT22;5963;50.184;9.162;2022-08-25T01:32:19;20.70;99.90
11812;DHT22;5963;50.184;9.162;2022-08-25T01:34:48;20.70;99.90
11812;DHT22;5963;50.184;9.162;2022-08-25T01:37:19;20.70;99.90
11812;DHT22;5963;50.184;9.162;2022-08-25T01:39:47;20.70;99.90
11812;DHT22;5963;50.184;9.162;2022-08-25T01:42:28;20.60;99.90
11812;DHT22;5963;50.184;9.162;2022-08-25T01:44:59;20.60;99.90
11812;DHT22;5963;50.184;9.162;2022-08-25T01:47:27;20.70;99.90
11812;DHT22;5963;50.184;9.162;2022-08-25T01:49:57;20.70;99.90
11812;DHT22;5963;50.184;9.162;2022-08-25T01:52:32;20.70;99.90
11812;DHT22;5963;50.184;9.162;2022-08-25T01:55:01;20.70;99.90
11812;DHT22;5963;50.184;9.162;2022-08-25T01:57:29;20.60;99.90
11812;DHT22;5963;50.184;9.162;2022-08-25T01:59:58;20.60;99.90
11812;DHT22;5963;50.184;9.162;2022-08-25T02:02:27;20.50;99.90
11812;DHT22;5963;50.184;9.162;2022-08-25T02:04:58;20.50;99.90
11812;DHT22;5963;50.184;9.162;2022-08-25T02:07:27;20.40;99.90
11812;DHT22;5963;50.184;9.162;2022-08-25T02:09:56;20.40;99.90
11812;DHT22;5963;50.184;9.162;2022-08-25T02:12:29;20.40;99.90
11812;DHT22;5963;50.184;9.162;2022-08-25T02:14:58;20.40;99.90
11812;DHT22;5963;50.184;9.162;2022-08-25T02:17:27;20.40;99.90
11812;DHT22;5963;50.184;9.162;2022-08-25T02:19:55;20.40;99.90
11812;DHT22;5963;50.184;9.162;2022-08-25T02:22:23;20.50;99.90
11812;DHT22;5963;50.184;9.162;2022-08-25T02:24:53;20.40;99.90
11812;DHT22;5963;50.184;9.162;2022-08-25T02:27:21;20.40;99.90
11812;DHT22;5963;50.184;9.162;2022-08-25T02:29:49;20.30;99.90
11812;DHT22;5963;50.184;9.162;2022-08-25T02:32:18;20.30;99.90
11812;DHT22;5963;50.184;9.162;2022-08-25T02:34:47;20.20;99.90
11812;DHT22;5963;50.184;9.162;2022-08-25T02:37:15;20.20;99.90
11812;DHT22;5963;50.184;9.162;2022-08-25T02:39:43;20.10;99.90
11812;DHT22;5963;50.184;9.162;2022-08-25T02:42:12;20.10;99.90
11812;DHT22;5963;50.184;9.162;2022-08-25T02:44:41;20.10;99.90
11812;DHT22;5963;50.184;9.162;2022-08-25T02:47:09;20.00;99.90
11812;DHT22;5963;50.184;9.162;2022-08-25T02:49:37;20.00;99.90
11812;DHT22;5963;50.184;9.162;2022-08-25T02:52:05;20.00;99.90
11812;DHT22;5963;50.184;9.162;2022-08-25T02:54:34;20.00;99.90
11812;DHT22;5963;50.184;9.162;2022-08-25T02:57:02;20.10;99.90
11812;DHT22;5963;50.184;9.162;2022-08-25T02:59:32;20.10;99.90
11812;DHT22;5963;50.184;9.162;2022-08-25T03:02:01;20.10;99.90
11812;DHT22;5963;50.184;9.162;2022-08-25T03:04:29;20.10;99.90
11812;DHT22;5963;50.184;9.162;2022-08-25T03:06:58;20.10;99.90
11812;DHT22;5963;50.184;9.162;2022-08-25T03:09:26;20.00;99.90
11812;DHT22;5963;50.184;9.162;2022-08-25T03:11:54;20.00;99.90
11812;DHT22;5963;50.184;9.162;2022-08-25T03:14:22;19.80;99.90
11812;DHT22;5963;50.184;9.162;2022-08-25T03:16:52;19.80;99.90
11812;DHT22;5963;50.184;9.162;2022-08-25T03:19:20;19.70;99.90
11812;DHT22;5963;50.184;9.162;2022-08-25T03:21:49;19.60;99.90
11812;DHT22;5963;50.184;9.162;2022-08-25T03:24:18;19.60;99.90
11812;DHT22;5963;50.184;9.162;2022-08-25T03:26:46;19.60;99.90
11812;DHT22;5963;50.184;9.162;2022-08-25T03:29:19;19.60;99.90
11812;DHT22;5963;50.184;9.162;2022-08-25T03:31:48;19.60;99.90
11812;DHT22;5963;50.184;9.162;2022-08-25T03:34:18;19.60;99.90
11812;DHT22;5963;50.184;9.162;2022-08-25T03:36:51;19.70;99.90
11812;DHT22;5963;50.184;9.162;2022-08-25T03:39:20;19.70;99.90
11812;DHT22;5963;50.184;9.162;2022-08-25T03:41:50;19.60;99.90
11812;DHT22;5963;50.184;9.162;2022-08-25T03:44:19;19.60;99.90
11812;DHT22;5963;50.184;9.162;2022-08-25T03:46:49;19.60;99.90
11812;DHT22;5963;50.184;9.162;2022-08-25T03:49:21;19.60;99.90
11812;DHT22;5963;50.184;9.162;2022-08-25T03:51:52;19.50;99.90
11812;DHT22;5963;50.184;9.162;2022-08-25T03:54:22;19.50;99.90
11812;DHT22;5963;50.184;9.162;2022-08-25T03:56:50;19.50;99.90
11812;DHT22;5963;50.184;9.162;2022-08-25T03:59:18;19.50;99.90
11812;DHT22;5963;50.184;9.162;2022-08-25T04:01:47;19.50;99.90
11812;DHT22;5963;50.184;9.162;2022-08-25T04:04:22;19.40;99.90
11812;DHT22;5963;50.184;9.162;2022-08-25T04:06:50;19.40;99.90
11812;DHT22;5963;50.184;9.162;2022-08-25T04:09:18;19.40;99.90
11812;DHT22;5963;50.184;9.162;2022-08-25T04:11:46;19.30;99.90
11812;DHT22;5963;50.184;9.162;2022-08-25T04:14:22;19.30;99.90
11812;DHT22;5963;50.184;9.162;2022-08-25T04:16:51;19.20;99.90
11812;DHT22;5963;50.184;9.162;2022-08-25T04:19:20;19.30;99.90
11812;DHT22;5963;50.184;9.162;2022-08-25T04:21:53;19.30;99.90
11812;DHT22;5963;50.184;9.162;2022-08-25T04:24:33;19.20;99.90
11812;DHT22;5963;50.184;9.162;2022-08-25T04:27:07;19.30;99.90
11812;DHT22;5963;50.184;9.162;2022-08-25T04:29:40;19.30;99.90
11812;DHT22;5963;50.184;9.162;2022-08-25T04:32:11;19.20;99.90
11812;DHT22;5963;50.184;9.162;2022-08-25T04:34:52;19.20;99.90
11812;DHT22;5963;50.184;9.162;2022-08-25T04:37:26;19.10;99.90
11812;DHT22;5963;50.184;9.162;2022-08-25T04:39:54;19.10;99.90
11812;DHT22;5963;50.184;9.162;2022-08-25T04:42:22;19.10;99.90
11812;DHT22;5963;50.184;9.162;2022-08-25T04:44:52;19.10;99.90
11812;DHT22;5963;50.184;9.162;2022-08-25T04:47:20;19.00;99.90
11812;DHT22;5963;50.184;9.162;2022-08-25T04:49:48;19.00;99.90
11812;DHT22;5963;50.184;9.162;2022-08-25T04:52:16;18.90;99.90
11812;DHT22;5963;50.184;9.162;2022-08-25T04:54:46;18.90;99.90
11812;DHT22;5963;50.184;9.162;2022-08-25T04:57:14;18.90;99.90
11812;DHT22;5963;50.184;9.162;2022-08-25T04:59:42;18.90;99.90
11812;DHT22;5963;50.184;9.162;2022-08-25T05:02:10;19.00;99.90
11812;DHT22;5963;50.184;9.162;2022-08-25T05:04:38;19.00;99.90
11812;DHT22;5963;50.184;9.162;2022-08-25T05:07:06;19.00;99.90
11812;DHT22;5963;50.184;9.162;2022-08-25T05:09:34;19.10;99.90
11812;DHT22;5963;50.184;9.162;2022-08-25T05:12:05;19.10;99.90
11812;DHT22;5963;50.184;9.162;2022-08-25T05:14:36;19.20;99.90
11812;DHT22;5963;50.184;9.162;2022-08-25T05:17:04;19.20;99.90
11812;DHT22;5963;50.184;9.162;2022-08-25T05:19:32;19.30;99.90
11812;DHT22;5963;50.184;9.162;2022-08-25T05:22:01;19.30;99.90
11812;DHT22;5963;50.184;9.162;2022-08-25T05:24:29;19.30;99.90
11812;DHT22;5963;50.184;9.162;2022-08-25T05:26:57;19.30;99.90
11812;DHT22;5963;50.184;9.162;2022-08-25T05:29:27;19.30;99.90
11812;DHT22;5963;50.184;9.162;2022-08-25T05:31:55;19.20;99.90
11812;DHT22;5963;50.184;9.162;2022-08-25T05:34:23;19.30;99.90
11812;DHT22;5963;50.184;9.162;2022-08-25T05:36:51;19.30;99.90
11812;DHT22;5963;50.184;9.162;2022-08-25T05:39:20;19.30;99.90
11812;DHT22;5963;50.184;9.162;2022-08-25T05:41:49;19.50;99.90
11812;DHT22;5963;50.184;9.162;2022-08-25T05:44:17;19.50;99.90
11812;DHT22;5963;50.184;9.162;2022-08-25T05:46:48;19.60;99.90
11812;DHT22;5963;50.184;9.162;2022-08-25T05:49:17;19.60;99.90
11812;DHT22;5963;50.184;9.162;2022-08-25T05:51:45;19.80;99.90
11812;DHT22;5963;50.184;9.162;2022-08-25T05:54:14;19.90;99.90
11812;DHT22;5963;50.184;9.162;2022-08-25T05:56:42;20.00;99.90
11812;DHT22;5963;50.184;9.162;2022-08-25T05:59:11;20.00;99.90
11812;DHT22;5963;50.184;9.162;2022-08-25T06:01:39;20.10;99.90
11812;DHT22;5963;50.184;9.162;2022-08-25T06:04:26;20.10;99.90
11812;DHT22;5963;50.184;9.162;2022-08-25T06:06:54;20.10;99.90
11812;DHT22;5963;50.184;9.162;2022-08-25T06:09:21;20.10;99.90
11812;DHT22;5963;50.184;9.162;2022-08-25T06:11:49;20.10;99.90
11812;DHT22;5963;50.184;9.162;2022-08-25T06:14:21;20.20;99.90
11812;DHT22;5963;50.184;9.162;2022-08-25T06:16:50;20.20;99.90
11812;DHT22;5963;50.184;9.162;2022-08-25T06:19:19;20.30;99.90
11812;DHT22;5963;50.184;9.162;2022-08-25T06:21:52;20.30;99.90
11812;DHT22;5963;50.184;9.162;2022-08-25T06:24:21;20.50;99.90
11812;DHT22;5963;50.184;9.162;2022-08-25T06:26:49;20.60;99.90
11812;DHT22;5963;50.184;9.162;2022-08-25T06:29:17;20.70;99.90
11812;DHT22;5963;50.184;9.162;2022-08-25T06:31:46;20.90;99.90
11812;DHT22;5963;50.184;9.162;2022-08-25T06:34:16;21.00;99.90
11812;DHT22;5963;50.184;9.162;2022-08-25T06:36:44;21.00;99.90
11812;DHT22;5963;50.184;9.162;2022-08-25T06:39:18;21.00;99.90
11812;DHT22;5963;50.184;9.162;2022-08-25T06:41:50;21.00;99.90
11812;DHT22;5963;50.184;9.162;2022-08-25T06:44:18;21.10;99.90
11812;DHT22;5963;50.184;9.162;2022-08-25T06:46:46;21.20;99.90
11812;DHT22;5963;50.184;9.162;2022-08-25T06:49:14;21.10;99.90
11812;DHT22;5963;50.184;9.162;2022-08-25T06:51:42;21.10;99.90
11812;DHT22;5963;50.184;9.162;2022-08-25T06:54:11;21.10;99.90
11812;DHT22;5963;50.184;9.162;2022-08-25T06:56:41;21.30;99.90
11812;DHT22;5963;50.184;9.162;2022-08-25T06:59:09;21.50;99.90
11812;DHT22;5963;50.184;9.162;2022-08-25T07:01:37;21.60;99.90
11812;DHT22;5963;50.184;9.162;2022-08-25T07:04:06;21.70;99.90
11812;DHT22;5963;50.184;9.162;2022-08-25T07:06:40;21.80;99.90
11812;DHT22;5963;50.184;9.162;2022-08-25T07:09:10;22.10;99.90
11812;DHT22;5963;50.184;9.162;2022-08-25T07:11:40;22.10;99.90
11812;DHT22;5963;50.184;9.162;2022-08-25T07:14:10;22.30;99.90
11812;DHT22;5963;50.184;9.162;2022-08-25T07:16:40;22.50;99.90
11812;DHT22;5963;50.184;9.162;2022-08-25T07:19:15;22.60;99.90
11812;DHT22;5963;50.184;9.162;2022-08-25T07:21:49;22.80;99.90
11812;DHT22;5963;50.184;9.162;2022-08-25T07:24:17;23.00;99.90
11812;DHT22;5963;50.184;9.162;2022-08-25T07:26:47;23.20;99.90
11812;DHT22;5963;50.184;9.162;2022-08-25T07:29:17;23.30;99.90
11812;DHT22;5963;50.184;9.162;2022-08-25T07:31:58;23.40;99.90
11812;DHT22;5963;50.184;9.162;2022-08-25T07:34:26;23.60;99.90
11812;DHT22;5963;50.184;9.162;2022-08-25T07:37:27;23.80;99.90
11812;DHT22;5963;50.184;9.162;2022-08-25T07:40:16;24.00;99.90
11812;DHT22;5963;50.184;9.162;2022-08-25T07:42:47;24.10;99.90
11812;DHT22;5963;50.184;9.162;2022-08-25T07:45:15;24.10;99.90
11812;DHT22;5963;50.184;9.162;2022-08-25T07:47:47;23.80;99.90
11812;DHT22;5963;50.184;9.162;2022-08-25T07:50:36;23.80;99.90
11812;DHT22;5963;50.184;9.162;2022-08-25T07:53:05;23.90;99.90
11812;DHT22;5963;50.184;9.162;2022-08-25T07:55:34;24.20;99.90
11812;DHT22;5963;50.184;9.162;2022-08-25T07:58:05;24.40;99.90
11812;DHT22;5963;50.184;9.162;2022-08-25T08:00:36;24.70;99.90
11812;DHT22;5963;50.184;9.162;2022-08-25T08:03:08;25.00;99.90
11812;DHT22;5963;50.184;9.162;2022-08-25T08:05:56;25.10;99.90
11812;DHT22;5963;50.184;9.162;2022-08-25T08:08:25;25.40;99.90
11812;DHT22;5963;50.184;9.162;2022-08-25T08:10:53;25.70;99.90
11812;DHT22;5963;50.184;9.162;2022-08-25T08:13:33;25.80;99.90
11812;DHT22;5963;50.184;9.162;2022-08-25T08:16:08;26.10;99.90
11812;DHT22;5963;50.184;9.162;2022-08-25T08:18:37;26.20;99.90
11812;DHT22;5963;50.184;9.162;2022-08-25T08:21:10;26.40;99.90
11812;DHT22;5963;50.184;9.162;2022-08-25T08:23:45;26.40;99.90
11812;DHT22;5963;50.184;9.162;2022-08-25T08:26:15;26.50;99.90
11812;DHT22;5963;50.184;9.162;2022-08-25T08:28:44;26.50;99.90
11812;DHT22;5963;50.184;9.162;2022-08-25T08:31:18;26.40;99.90
11812;DHT22;5963;50.184;9.162;2022-08-25T08:33:47;26.70;99.90
11812;DHT22;5963;50.184;9.162;2022-08-25T08:36:16;26.80;99.90
11812;DHT22;5963;50.184;9.162;2022-08-25T08:38:46;27.00;99.90
11812;DHT22;5963;50.184;9.162;2022-08-25T08:41:30;27.20;99.90
11812;DHT22;5963;50.184;9.162;2022-08-25T08:44:44;27.40;99.90
11812;DHT22;5963;50.184;9.162;2022-08-25T08:47:22;27.50;99.90
11812;DHT22;5963;50.184;9.162;2022-08-25T08:50:00;27.30;99.90
11812;DHT22;5963;50.184;9.162;2022-08-25T08:52:36;27.60;99.90
11812;DHT22;5963;50.184;9.162;2022-08-25T08:55:22;27.50;99.90
11812;DHT22;5963;50.184;9.162;2022-08-25T08:57:52;27.40;99.90
11812;DHT22;5963;50.184;9.162;2022-08-25T09:00:25;27.80;99.90
11812;DHT22;5963;50.184;9.162;2022-08-25T09:02:59;28.10;99.90
11812;DHT22;5963;50.184;9.162;2022-08-25T09:05:37;28.20;99.90
11812;DHT22;5963;50.184;9.162;2022-08-25T09:08:14;28.30;99.90
11812;DHT22;5963;50.184;9.162;2022-08-25T09:10:56;28.10;99.90
11812;DHT22;5963;50.184;9.162;2022-08-25T09:13:38;28.20;99.90
11812;DHT22;5963;50.184;9.162;2022-08-25T09:16:17;28.50;99.90
11812;DHT22;5963;50.184;9.162;2022-08-25T09:19:16;28.40;99.90
11812;DHT22;5963;50.184;9.162;2022-08-25T09:21:56;28.60;99.90
11812;DHT22;5963;50.184;9.162;2022-08-25T09:24:37;28.30;99.90
11812;DHT22;5963;50.184;9.162;2022-08-25T09:27:19;28.40;99.90
11812;DHT22;5963;50.184;9.162;2022-08-25T09:29:58;28.40;99.90
11812;DHT22;5963;50.184;9.162;2022-08-25T09:32:36;28.40;99.90
11812;DHT22;5963;50.184;9.162;2022-08-25T09:35:18;28.60;99.90
11812;DHT22;5963;50.184;9.162;2022-08-25T09:37:57;28.80;99.90
11812;DHT22;5963;50.184;9.162;2022-08-25T09:40:28;28.70;99.90
11812;DHT22;5963;50.184;9.162;2022-08-25T09:42:59;28.50;99.90
11812;DHT22;5963;50.184;9.162;2022-08-25T09:45:39;28.60;99.90
11812;DHT22;5963;50.184;9.162;2022-08-25T09:48:27;28.80;99.90
11812;DHT22;5963;50.184;9.162;2022-08-25T09:50:58;29.00;99.90
11812;DHT22;5963;50.184;9.162;2022-08-25T09:53:27;29.20;99.90
11812;DHT22;5963;50.184;9.162;2022-08-25T09:56:01;29.50;99.90
11812;DHT22;5963;50.184;9.162;2022-08-25T09:58:32;30.10;99.90
11812;DHT22;5963;50.184;9.162;2022-08-25T10:01:10;30.00;99.90
11812;DHT22;5963;50.184;9.162;2022-08-25T10:03:57;30.30;99.90
11812;DHT22;5963;50.184;9.162;2022-08-25T10:06:27;30.20;99.90
11812;DHT22;5963;50.184;9.162;2022-08-25T10:08:58;30.00;99.90
11812;DHT22;5963;50.184;9.162;2022-08-25T10:11:35;30.00;99.90
11812;DHT22;5963;50.184;9.162;2022-08-25T10:14:18;30.00;99.90
11812;DHT22;5963;50.184;9.162;2022-08-25T10:16:47;30.50;99.90
11812;DHT22;5963;50.184;9.162;2022-08-25T10:19:25;30.80;99.90
11812;DHT22;5963;50.184;9.162;2022-08-25T10:22:05;30.80;99.90
11812;DHT22;5963;50.184;9.162;2022-08-25T10:24:37;30.80;99.90
11812;DHT22;5963;50.184;9.162;2022-08-25T10:27:19;30.80;99.90
11812;DHT22;5963;50.184;9.162;2022-08-25T10:29:59;30.70;99.90
11812;DHT22;5963;50.184;9.162;2022-08-25T10:32:36;29.70;99.90
11812;DHT22;5963;50.184;9.162;2022-08-25T10:35:16;29.80;99.90
11812;DHT22;5963;50.184;9.162;2022-08-25T10:37:56;29.50;99.90
11812;DHT22;5963;50.184;9.162;2022-08-25T10:40:30;29.40;99.90
11812;DHT22;5963;50.184;9.162;2022-08-25T10:43:04;29.20;99.90
11812;DHT22;5963;50.184;9.162;2022-08-25T10:45:37;28.90;99.90
11812;DHT22;5963;50.184;9.162;2022-08-25T10:48:31;28.80;99.90
11812;DHT22;5963;50.184;9.162;2022-08-25T10:51:13;29.60;99.90
11812;DHT22;5963;50.184;9.162;2022-08-25T10:53:56;29.90;99.90
11812;DHT22;5963;50.184;9.162;2022-08-25T10:56:32;30.30;99.90
11812;DHT22;5963;50.184;9.162;2022-08-25T10:59:29;30.60;99.90
11812;DHT22;5963;50.184;9.162;2022-08-25T11:02:23;30.50;99.90
11812;DHT22;5963;50.184;9.162;2022-08-25T11:05:00;30.50;99.90
11812;DHT22;5963;50.184;9.162;2022-08-25T11:07:33;30.40;99.90
11812;DHT22;5963;50.184;9.162;2022-08-25T11:10:05;30.40;99.90
11812;DHT22;5963;50.184;9.162;2022-08-25T11:12:39;30.70;99.90
11812;DHT22;5963;50.184;9.162;2022-08-25T11:15:11;31.10;99.90
11812;DHT22;5963;50.184;9.162;2022-08-25T11:17:45;31.40;99.90
11812;DHT22;5963;50.184;9.162;2022-08-25T11:20:20;31.80;99.90
11812;DHT22;5963;50.184;9.162;2022-08-25T11:23:07;31.50;99.90
11812;DHT22;5963;50.184;9.162;2022-08-25T11:25:41;31.80;99.90
11812;DHT22;5963;50.184;9.162;2022-08-25T11:28:12;31.20;99.90
11812;DHT22;5963;50.184;9.162;2022-08-25T11:30:42;30.60;99.90
11812;DHT22;5963;50.184;9.162;2022-08-25T11:33:13;30.30;99.90
11812;DHT22;5963;50.184;9.162;2022-08-25T11:35:48;30.40;99.90
11812;DHT22;5963;50.184;9.162;2022-08-25T11:38:27;30.80;99.90
11812;DHT22;5963;50.184;9.162;2022-08-25T11:41:18;31.40;99.90
11812;DHT22;5963;50.184;9.162;2022-08-25T11:44:10;31.60;99.90
11812;DHT22;5963;50.184;9.162;2022-08-25T11:46:50;30.80;99.90
11812;DHT22;5963;50.184;9.162;2022-08-25T11:49:42;30.80;99.90
11812;DHT22;5963;50.184;9.162;2022-08-25T11:52:40;30.60;99.90
11812;DHT22;5963;50.184;9.162;2022-08-25T11:55:13;30.20;99.90
11812;DHT22;5963;50.184;9.162;2022-08-25T11:57:43;30.60;99.90
11812;DHT22;5963;50.184;9.162;2022-08-25T12:00:37;30.20;99.90
11812;DHT22;5963;50.184;9.162;2022-08-25T12:06:27;30.40;99.90
11812;DHT22;5963;50.184;9.162;2022-08-25T12:09:18;29.90;99.90
11812;DHT22;5963;50.184;9.162;2022-08-25T12:11:57;30.20;99.90
11812;DHT22;5963;50.184;9.162;2022-08-25T12:14:42;30.20;99.90
11812;DHT22;5963;50.184;9.162;2022-08-25T12:17:23;30.40;99.90
11812;DHT22;5963;50.184;9.162;2022-08-25T12:19:58;30.50;99.90
11812;DHT22;5963;50.184;9.162;2022-08-25T12:22:52;30.60;99.90
11812;DHT22;5963;50.184;9.162;2022-08-25T12:28:42;30.40;99.90
11812;DHT22;5963;50.184;9.162;2022-08-25T12:31:22;30.70;99.90
11812;DHT22;5963;50.184;9.162;2022-08-25T12:34:06;30.70;99.90
11812;DHT22;5963;50.184;9.162;2022-08-25T12:36:38;31.20;99.90
11812;DHT22;5963;50.184;9.162;2022-08-25T12:39:15;31.70;99.90
11812;DHT22;5963;50.184;9.162;2022-08-25T12:41:52;32.20;99.90
11812;DHT22;5963;50.184;9.162;2022-08-25T12:44:38;31.80;99.90
11812;DHT22;5963;50.184;9.162;2022-08-25T12:47:12;31.70;99.90
11812;DHT22;5963;50.184;9.162;2022-08-25T12:49:40;31.40;99.90
11812;DHT22;5963;50.184;9.162;2022-08-25T12:52:11;31.40;99.90
11812;DHT22;5963;50.184;9.162;2022-08-25T12:54:46;31.30;99.90
11812;DHT22;5963;50.184;9.162;2022-08-25T12:57:39;31.40;99.90
11812;DHT22;5963;50.184;9.162;2022-08-25T13:00:18;31.50;99.90
11812;DHT22;5963;50.184;9.162;2022-08-25T13:03:15;31.60;99.90
11812;DHT22;5963;50.184;9.162;2022-08-25T13:06:04;31.50;99.90
11812;DHT22;5963;50.184;9.162;2022-08-25T13:09:12;31.60;99.90
11812;DHT22;5963;50.184;9.162;2022-08-25T13:11:50;31.80;99.90
11812;DHT22;5963;50.184;9.162;2022-08-25T13:14:27;31.80;99.90
11812;DHT22;5963;50.184;9.162;2022-08-25T13:17:05;31.80;99.90
11812;DHT22;5963;50.184;9.162;2022-08-25T13:19:35;31.80;99.90
11812;DHT22;5963;50.184;9.162;2022-08-25T13:22:10;31.20;99.90
11812;DHT22;5963;50.184;9.162;2022-08-25T13:24:43;30.90;99.90
11812;DHT22;5963;50.184;9.162;2022-08-25T13:27:26;30.90;99.90
11812;DHT22;5963;50.184;9.162;2022-08-25T13:29:57;30.80;99.90
11812;DHT22;5963;50.184;9.162;2022-08-25T13:32:33;30.40;99.90
11812;DHT22;5963;50.184;9.162;2022-08-25T13:35:11;30.40;99.90
11812;DHT22;5963;50.184;9.162;2022-08-25T13:37:45;30.20;99.90
11812;DHT22;5963;50.184;9.162;2022-08-25T13:40:19;29.90;99.90
11812;DHT22;5963;50.184;9.162;2022-08-25T13:42:54;29.90;99.90
11812;DHT22;5963;50.184;9.162;2022-08-25T13:45:25;30.60;99.90
11812;DHT22;5963;50.184;9.162;2022-08-25T13:47:58;31.10;99.90
11812;DHT22;5963;50.184;9.162;2022-08-25T13:50:32;30.80;99.90
11812;DHT22;5963;50.184;9.162;2022-08-25T13:53:05;30.60;99.90
11812;DHT22;5963;50.184;9.162;2022-08-25T13:55:47;30.70;99.90
11812;DHT22;5963;50.184;9.162;2022-08-25T13:58:20;30.80;99.90
11812;DHT22;5963;50.184;9.162;2022-08-25T14:01:08;30.90;99.90
11812;DHT22;5963;50.184;9.162;2022-08-25T14:04:25;30.80;99.90
11812;DHT22;5963;50.184;9.162;2022-08-25T14:07:11;31.10;99.90
11812;DHT22;5963;50.184;9.162;2022-08-25T14:09:45;31.30;99.90
11812;DHT22;5963;50.184;9.162;2022-08-25T14:12:36;31.50;99.90
11812;DHT22;5963;50.184;9.162;2022-08-25T14:15:09;31.40;99.90
11812;DHT22;5963;50.184;9.162;2022-08-25T14:17:40;31.20;99.90
11812;DHT22;5963;50.184;9.162;2022-08-25T14:20:19;31.50;99.90
11812;DHT22;5963;50.184;9.162;2022-08-25T14:22:55;32.00;99.80
11812;DHT22;5963;50.184;9.162;2022-08-25T14:25:25;32.20;99.00
11812;DHT22;5963;50.184;9.162;2022-08-25T14:27:54;32.50;98.90
11812;DHT22;5963;50.184;9.162;2022-08-25T14:30:42;31.60;97.40
11812;DHT22;5963;50.184;9.162;2022-08-25T14:33:13;31.00;96.70
11812;DHT22;5963;50.184;9.162;2022-08-25T14:35:47;30.70;96.70
11812;DHT22;5963;50.184;9.162;2022-08-25T14:38:15;30.60;96.80
11812;DHT22;5963;50.184;9.162;2022-08-25T14:40:46;30.50;96.50
11812;DHT22;5963;50.184;9.162;2022-08-25T14:43:16;30.10;96.80
11812;DHT22;5963;50.184;9.162;2022-08-25T14:45:50;29.70;97.30
11812;DHT22;5963;50.184;9.162;2022-08-25T14:48:24;29.40;97.60
11812;DHT22;5963;50.184;9.162;2022-08-25T14:50:56;29.40;98.00
11812;DHT22;5963;50.184;9.162;2022-08-25T14:53:26;29.30;98.30
11812;DHT22;5963;50.184;9.162;2022-08-25T14:55:54;29.30;98.20
11812;DHT22;5963;50.184;9.162;2022-08-25T14:58:25;29.10;97.80
11812;DHT22;5963;50.184;9.162;2022-08-25T15:01:00;28.90;98.30
11812;DHT22;5963;50.184;9.162;2022-08-25T15:03:31;28.80;98.90
11812;DHT22;5963;50.184;9.162;2022-08-25T15:06:02;28.70;98.90
11812;DHT22;5963;50.184;9.162;2022-08-25T15:08:31;28.70;99.10
11812;DHT22;5963;50.184;9.162;2022-08-25T15:11:16;28.70;99.10
11812;DHT22;5963;50.184;9.162;2022-08-25T15:13:44;28.60;99.10
11812;DHT22;5963;50.184;9.162;2022-08-25T15:16:21;28.50;98.80
11812;DHT22;5963;50.184;9.162;2022-08-25T15:19:00;28.50;99.20
11812;DHT22;5963;50.184;9.162;2022-08-25T15:21:34;28.50;99.70
11812;DHT22;5963;50.184;9.162;2022-08-25T15:24:02;28.70;99.90
11812;DHT22;5963;50.184;9.162;2022-08-25T15:26:32;28.90;99.90
11812;DHT22;5963;50.184;9.162;2022-08-25T15:29:02;29.10;99.30
11812;DHT22;5963;50.184;9.162;2022-08-25T15:31:30;29.30;98.70
11812;DHT22;5963;50.184;9.162;2022-08-25T15:33:58;29.60;98.60
11812;DHT22;5963;50.184;9.162;2022-08-25T15:36:27;29.60;98.10
11812;DHT22;5963;50.184;9.162;2022-08-25T15:38:57;29.70;98.60
11812;DHT22;5963;50.184;9.162;2022-08-25T15:41:25;29.80;98.80
11812;DHT22;5963;50.184;9.162;2022-08-25T15:43:55;29.80;98.80
11812;DHT22;5963;50.184;9.162;2022-08-25T15:46:25;29.90;99.10
11812;DHT22;5963;50.184;9.162;2022-08-25T15:48:55;29.90;98.60
11812;DHT22;5963;50.184;9.162;2022-08-25T15:51:23;29.70;98.60
11812;DHT22;5963;50.184;9.162;2022-08-25T15:53:51;29.70;98.50
11812;DHT22;5963;50.184;9.162;2022-08-25T15:56:21;29.60;98.60
11812;DHT22;5963;50.184;9.162;2022-08-25T15:58:52;29.60;98.40
11812;DHT22;5963;50.184;9.162;2022-08-25T16:01:24;29.70;98.40
11812;DHT22;5963;50.184;9.162;2022-08-25T16:03:53;29.70;98.50
11812;DHT22;5963;50.184;9.162;2022-08-25T16:06:21;29.80;98.40
11812;DHT22;5963;50.184;9.162;2022-08-25T16:08:50;29.70;98.70
11812;DHT22;5963;50.184;9.162;2022-08-25T16:11:22;29.90;98.60
11812;DHT22;5963;50.184;9.162;2022-08-25T16:13:52;30.10;98.50
11812;DHT22;5963;50.184;9.162;2022-08-25T16:16:22;30.00;98.30
11812;DHT22;5963;50.184;9.162;2022-08-25T16:18:52;30.00;98.90
11812;DHT22;5963;50.184;9.162;2022-08-25T16:21:23;29.90;98.80
11812;DHT22;5963;50.184;9.162;2022-08-25T16:23:57;29.90;98.70
11812;DHT22;5963;50.184;9.162;2022-08-25T16:26:29;29.70;99.10
11812;DHT22;5963;50.184;9.162;2022-08-25T16:28:58;29.60;99.10
11812;DHT22;5963;50.184;9.162;2022-08-25T16:31:26;29.60;99.50